createdAt,value
2022-09-11T06:13:01.662Z,3206.6
2022-09-11T06:18:48.368Z,3210.5
2022-09-11T06:24:34.105Z,3214
2022-09-11T06:30:33.912Z,3223
2022-09-11T06:37:03.978Z,3219
2022-09-11T06:42:46.495Z,3227.9
2022-09-11T06:48:44.975Z,3235.1
2022-09-11T06:54:31.928Z,3234.1
2022-09-11T07:00:41.564Z,3249.8
2022-09-11T07:06:42.361Z,3244.5
2022-09-11T07:13:05.427Z,3246.3
2022-09-11T07:18:45.236Z,3263.2
2022-09-11T07:24:23.648Z,3274
2022-09-11T07:29:58.024Z,3280.3
2022-09-11T07:35:33.085Z,3301.8
2022-09-11T07:41:43.886Z,3317.3
2022-09-11T07:47:17.341Z,3361.1
2022-09-11T07:52:52.341Z,3389.4
2022-09-11T07:58:27.346Z,3427.4
2022-09-11T08:04:03.645Z,3660
2022-09-11T08:09:40.377Z,3716.8
2022-09-11T08:15:15.592Z,3758.4
2022-09-11T08:20:51.697Z,3790.5
2022-09-11T08:26:26.644Z,3811.3
2022-09-11T08:32:03.639Z,3815.6
2022-09-11T08:37:38.521Z,3818.5
2022-09-11T08:43:14.432Z,3817.5
2022-09-11T08:48:49.777Z,3819.8
2022-09-11T08:54:24.614Z,3820.7
2022-09-11T08:59:59.635Z,3823.9
2022-09-11T09:05:34.810Z,3826.2
2022-09-11T09:11:09.941Z,3827.9
2022-09-11T09:16:46.240Z,3833.4
2022-09-11T09:22:22.331Z,3841.1
2022-09-11T09:27:57.484Z,3848.8
2022-09-11T09:33:32.458Z,3851.5
2022-09-11T09:39:08.364Z,3856.9
2022-09-11T09:44:43.438Z,3862.6
2022-09-11T09:50:18.471Z,3870.6
2022-09-11T09:55:53.361Z,3875.1
2022-09-11T10:01:29.139Z,3877.5
2022-09-11T10:07:04.289Z,3879.5
2022-09-11T10:12:39.567Z,3880.5
2022-09-11T10:18:14.462Z,3883.8
2022-09-11T10:23:50.543Z,3886.5
2022-09-11T10:29:25.398Z,3889.5
2022-09-11T10:35:01.193Z,3891.9
2022-09-11T10:40:36.154Z,3892.4
2022-09-11T10:46:12.003Z,3894.9
2022-09-11T10:51:48.720Z,3893.7
2022-09-11T10:57:24.684Z,3896.6
2022-09-11T11:02:59.565Z,3898.1
2022-09-11T11:08:35.077Z,3901.6
2022-09-11T11:14:10.100Z,3901.7
2022-09-11T11:19:45.267Z,3904.3
2022-09-11T11:25:20.263Z,3904.3
2022-09-11T11:30:54.810Z,3790.9
2022-09-11T11:36:29.390Z,3797.9
2022-09-11T11:42:05.147Z,3787.2
2022-09-11T11:47:40.037Z,3805.3
2022-09-11T11:53:15.122Z,3791.5
2022-09-11T11:58:50.065Z,3799.4
2022-09-11T12:04:24.714Z,3801.2
2022-09-11T12:09:59.684Z,3800.7
2022-09-11T12:15:34.835Z,3801.6
2022-09-11T12:21:09.853Z,3793.7
2022-09-11T12:26:45.196Z,3918.2
2022-09-11T12:32:20.559Z,3917.2
2022-09-11T12:37:55.871Z,3919.3
2022-09-11T12:43:30.793Z,3923.9
2022-09-11T12:49:24.563Z,3927.2
2022-09-11T12:54:59.670Z,3930.1
2022-09-11T13:00:34.743Z,3932.9
2022-09-11T13:06:10.005Z,3931.9
2022-09-11T13:11:45.199Z,3933.9
2022-09-11T13:17:20.270Z,3941.1
2022-09-11T13:22:59.647Z,3943.8
2022-09-11T13:28:34.690Z,3950
2022-09-11T13:34:10.635Z,3955.5
2022-09-11T13:39:46.545Z,3959
2022-09-11T13:45:21.567Z,3962.2
2022-09-11T13:50:56.946Z,3968.4
2022-09-11T13:56:31.746Z,3971.3
2022-09-11T14:02:07.503Z,3979.8
2022-09-11T14:07:42.652Z,3985
2022-09-11T14:13:18.033Z,3986.8
2022-09-11T14:18:53.197Z,3993
2022-09-11T14:24:28.294Z,3999.2
2022-09-11T14:30:03.300Z,4007.3
2022-09-11T14:35:38.420Z,4015.3
2022-09-11T14:41:13.438Z,4022.5
2022-09-11T14:46:48.503Z,4030.7
2022-09-11T14:52:23.361Z,4037.1
2022-09-11T14:57:58.383Z,4041.9
2022-09-11T15:03:34.899Z,4047.3
2022-09-11T15:09:10.179Z,3951.5
2022-09-11T15:15:01.659Z,3950
2022-09-11T15:20:37.523Z,3982
2022-09-11T15:26:12.063Z,3960.7
2022-09-11T15:31:46.952Z,3976.1
2022-09-11T15:37:21.820Z,3945.8
2022-09-11T15:42:56.415Z,3945
2022-09-11T15:48:31.149Z,3941.4
2022-09-11T15:54:06.594Z,3937.6
2022-09-11T15:59:41.503Z,3940.1
2022-09-11T16:05:16.569Z,3941.1
2022-09-11T16:10:51.595Z,3948.8
2022-09-11T16:16:26.988Z,3944.1
2022-09-11T16:22:02.312Z,3939.6
2022-09-11T16:27:37.233Z,3935.6
2022-09-11T16:33:12.027Z,3936.4
2022-09-11T16:38:47.941Z,3936.3
2022-09-11T16:44:22.596Z,3934.7
2022-09-11T16:50:12.891Z,3935.1
2022-09-11T16:55:47.935Z,3935.2
2022-09-11T17:01:24.595Z,3936.8
2022-09-11T17:06:59.834Z,3931.7
2022-09-11T17:12:34.839Z,3934.6
2022-09-11T17:18:09.503Z,3934.6
2022-09-11T17:23:44.306Z,3935.9
2022-09-11T17:29:19.756Z,3934.4
2022-09-11T17:34:54.809Z,3934.7
2022-09-11T17:40:29.589Z,3934.7
2022-09-11T17:46:06.201Z,3934.9
2022-09-11T17:51:41.335Z,3933.1
2022-09-11T17:57:16.029Z,3934.2
2022-09-11T18:02:51.112Z,3934.2
2022-09-11T18:08:26.404Z,3934.2
2022-09-11T18:14:01.710Z,3933.9
2022-09-11T18:19:36.624Z,3932.4
2022-09-11T18:25:19.969Z,3933.1
2022-09-11T18:30:55.398Z,3934.9
2022-09-11T18:36:30.431Z,3933.9
2022-09-11T18:42:05.168Z,3933.6
2022-09-11T18:47:39.980Z,3933.6
2022-09-11T18:53:14.988Z,3932.4
2022-09-11T18:58:50.288Z,3934.6
2022-09-11T19:04:25.137Z,3932.6
2022-09-11T19:10:01.379Z,3933.6
2022-09-11T19:15:36.227Z,3932.4
2022-09-11T19:21:11.032Z,3932.9
2022-09-11T19:26:46.248Z,3933.4
2022-09-11T19:32:20.998Z,3929
2022-09-11T19:37:56.034Z,3930.1
2022-09-11T19:43:32.546Z,3932.4
2022-09-11T19:49:08.570Z,3932.1
2022-09-11T19:54:43.119Z,3931.4
2022-09-11T20:00:18.055Z,3933.1
2022-09-11T20:05:52.735Z,3931.4
2022-09-11T20:11:27.454Z,3932.2
2022-09-11T20:17:02.419Z,3930.2
2022-09-11T20:22:38.177Z,3930.6
2022-09-11T20:28:14.026Z,3931.2
2022-09-11T20:33:49.076Z,3931.6
2022-09-11T20:39:24.024Z,3930.1
2022-09-11T20:45:01.794Z,3930.1
2022-09-11T20:50:37.718Z,3929
2022-09-11T20:56:12.551Z,3929
2022-09-11T21:01:48.462Z,3928.9
2022-09-11T21:07:23.612Z,3927.7
2022-09-11T21:12:58.397Z,3929.9
2022-09-11T21:18:33.319Z,3930.1
2022-09-11T21:24:08.115Z,3928.9
2022-09-11T21:29:43.001Z,3927.7
2022-09-11T21:35:17.763Z,3928
2022-09-11T21:40:52.636Z,3926.7
2022-09-11T21:46:28.222Z,3927.7
2022-09-11T21:52:03.021Z,3927.2
2022-09-11T21:57:38.014Z,3926.9
2022-09-11T22:03:12.984Z,3925.9
2022-09-11T22:08:47.934Z,3928.9
2022-09-11T22:14:22.897Z,3926
2022-09-11T22:19:58.590Z,3925
2022-09-11T22:25:33.437Z,3926
2022-09-11T22:31:10.163Z,3928
2022-09-11T22:36:45.092Z,3925.2
2022-09-11T22:42:20.021Z,3924.4
2022-09-11T22:47:55.999Z,3924.5
2022-09-11T22:53:30.673Z,3923.9
2022-09-11T22:59:05.643Z,3925
2022-09-11T23:04:40.754Z,3924.7
2022-09-11T23:10:16.592Z,3923.4
2022-09-11T23:15:51.461Z,3927.2
2022-09-11T23:21:26.626Z,3921.2
2022-09-11T23:27:01.649Z,3921.8
2022-09-11T23:32:58.111Z,3920
2022-09-11T23:38:30.981Z,3924
2022-09-11T23:44:07.017Z,3921.3
2022-09-11T23:49:41.978Z,3924.7
2022-09-11T23:55:16.835Z,3922.2
